createdAt,value
2022-09-12T00:01:34.330Z,100.00
2022-09-12T00:04:03.753Z,100.00
2022-09-12T00:06:35.921Z,100.00
2022-09-12T00:09:08.345Z,100.00
2022-09-12T00:11:39.146Z,100.00
2022-09-12T00:14:09.899Z,100.00
2022-09-12T00:16:39.775Z,100.00
2022-09-12T00:19:09.886Z,100.00
2022-09-12T00:21:40.768Z,100.00
2022-09-12T00:24:11.529Z,100.00
2022-09-12T00:26:40.928Z,100.00
2022-09-12T00:29:11.117Z,100.00
2022-09-12T00:31:40.507Z,100.00
2022-09-12T00:34:10.917Z,100.00
2022-09-12T00:36:40.609Z,100.00
2022-09-12T00:39:11.565Z,100.00
2022-09-12T00:41:41.448Z,100.00
2022-09-12T00:44:25.861Z,100.00
2022-09-12T00:47:02.076Z,100.00
2022-09-12T00:49:34.026Z,100.00
2022-09-12T00:52:11.807Z,100.00
2022-09-12T00:54:44.369Z,100.00
2022-09-12T00:57:13.192Z,100.00
2022-09-12T00:59:51.039Z,100.00
2022-09-12T01:02:20.323Z,100.00
2022-09-12T01:04:49.594Z,100.00
2022-09-12T01:07:18.989Z,100.00
2022-09-12T01:09:48.439Z,100.00
2022-09-12T01:12:18.574Z,100.00
2022-09-12T01:14:47.799Z,100.00
2022-09-12T01:17:17.461Z,100.00
2022-09-12T01:20:17.046Z,100.00
2022-09-12T01:23:06.004Z,100.00
2022-09-12T01:26:05.757Z,100.00
2022-09-12T01:28:47.042Z,100.00
2022-09-12T01:31:22.204Z,100.00
2022-09-12T01:34:18.270Z,100.00
2022-09-12T01:36:53.809Z,100.00
2022-09-12T01:39:40.841Z,100.00
2022-09-12T01:42:25.317Z,100.00
2022-09-12T01:45:17.323Z,100.00
2022-09-12T01:48:00.231Z,100.00
2022-09-12T01:50:29.367Z,100.00
2022-09-12T01:53:08.105Z,100.00
2022-09-12T01:55:52.445Z,100.00
2022-09-12T01:58:30.507Z,100.00
2022-09-12T02:01:11.604Z,100.00
2022-09-12T02:03:44.522Z,100.00
2022-09-12T02:06:20.086Z,100.00
2022-09-12T02:08:54.505Z,100.00
2022-09-12T02:11:23.952Z,100.00
2022-09-12T02:14:00.526Z,100.00
2022-09-12T02:16:38.430Z,100.00
2022-09-12T02:19:19.357Z,100.00
2022-09-12T02:22:02.799Z,100.00
2022-09-12T02:24:35.472Z,100.00
2022-09-12T02:27:08.642Z,100.00
2022-09-12T02:29:37.282Z,100.00
2022-09-12T02:32:12.091Z,100.00
2022-09-12T02:34:48.773Z,100.00
2022-09-12T02:37:46.877Z,100.00
2022-09-12T02:40:16.328Z,100.00
2022-09-12T02:42:45.655Z,100.00
2022-09-12T02:45:15.124Z,100.00
2022-09-12T02:47:50.110Z,100.00
2022-09-12T02:50:20.377Z,100.00
2022-09-12T02:52:49.689Z,100.00
2022-09-12T02:55:19.249Z,100.00
2022-09-12T02:57:48.482Z,100.00
2022-09-12T03:00:17.974Z,100.00
2022-09-12T03:03:23.670Z,100.00
2022-09-12T03:06:00.503Z,100.00
2022-09-12T03:08:48.228Z,100.00
2022-09-12T03:11:29.957Z,100.00
2022-09-12T03:14:11.103Z,100.00
2022-09-12T03:16:49.767Z,100.00
2022-09-12T03:19:24.790Z,100.00
2022-09-12T03:22:12.207Z,100.00
2022-09-12T03:24:50.412Z,100.00
2022-09-12T03:27:34.549Z,100.00
2022-09-12T03:30:06.199Z,100.00
2022-09-12T03:32:46.576Z,100.00
2022-09-12T03:35:22.228Z,100.00
2022-09-12T03:37:49.984Z,100.00
2022-09-12T03:40:19.567Z,100.00
2022-09-12T03:42:48.861Z,100.00
2022-09-12T03:45:18.270Z,100.00
2022-09-12T03:47:47.490Z,100.00
2022-09-12T03:50:17.290Z,100.00
2022-09-12T03:52:46.508Z,100.00
2022-09-12T03:55:15.995Z,100.00
2022-09-12T03:57:45.512Z,100.00
2022-09-12T04:00:19.571Z,100.00
2022-09-12T04:02:45.929Z,100.00
2022-09-12T04:05:15.265Z,100.00
2022-09-12T04:07:44.500Z,100.00
2022-09-12T04:10:16.232Z,100.00
2022-09-12T04:12:44.879Z,100.00
2022-09-12T04:15:14.238Z,100.00
2022-09-12T04:17:43.456Z,100.00
2022-09-12T04:20:12.709Z,100.00
2022-09-12T04:22:41.920Z,100.00
2022-09-12T04:25:11.915Z,100.00
2022-09-12T04:27:41.575Z,100.00
2022-09-12T04:30:11.290Z,100.00
2022-09-12T04:32:41.415Z,100.00
2022-09-12T04:35:12.335Z,100.00
2022-09-12T04:37:41.624Z,100.00
2022-09-12T04:40:11.337Z,100.00
2022-09-12T04:42:40.503Z,100.00
2022-09-12T04:45:10.126Z,100.00
2022-09-12T04:47:39.346Z,100.00
2022-09-12T04:50:10.234Z,100.00
2022-09-12T04:52:39.490Z,100.00
2022-09-12T04:55:10.573Z,100.00
2022-09-12T04:57:39.798Z,100.00
2022-09-12T05:00:11.951Z,100.00
2022-09-12T05:02:42.198Z,100.00
2022-09-12T05:05:12.238Z,100.00
2022-09-12T05:07:41.468Z,100.00
2022-09-12T05:10:12.050Z,100.00
2022-09-12T05:12:41.473Z,100.00
2022-09-12T05:15:11.842Z,100.00
2022-09-12T05:17:41.115Z,100.00
2022-09-12T05:20:12.266Z,100.00
2022-09-12T05:22:41.646Z,100.00
2022-09-12T05:25:11.271Z,100.00
2022-09-12T05:27:40.572Z,100.00
2022-09-12T05:30:11.331Z,100.00
2022-09-12T05:32:41.052Z,100.00
2022-09-12T05:35:11.133Z,100.00
2022-09-12T05:37:40.414Z,100.00
2022-09-12T05:40:10.586Z,100.00
2022-09-12T05:42:40.013Z,100.00
2022-09-12T05:45:09.744Z,100.00
2022-09-12T05:47:39.045Z,100.00
2022-09-12T05:50:10.356Z,100.00
2022-09-12T05:52:39.853Z,100.00
2022-09-12T05:55:09.560Z,100.00
2022-09-12T05:57:39.484Z,100.00
2022-09-12T06:00:10.111Z,100.00
2022-09-12T06:02:42.070Z,100.00
2022-09-12T06:05:11.551Z,100.00
2022-09-12T06:07:40.779Z,100.00
2022-09-12T06:10:12.028Z,100.00
2022-09-12T06:12:41.255Z,100.00
2022-09-12T06:15:11.921Z,100.00
2022-09-12T06:17:41.215Z,100.00
2022-09-12T06:20:10.928Z,100.00
2022-09-12T06:22:40.813Z,100.00
2022-09-12T06:25:10.203Z,100.00
2022-09-12T06:27:39.414Z,100.00
2022-09-12T06:30:09.238Z,100.00
2022-09-12T06:32:38.470Z,100.00
2022-09-12T06:35:08.348Z,100.00
2022-09-12T06:37:37.565Z,100.00
2022-09-12T06:40:08.630Z,100.00
2022-09-12T06:42:37.852Z,100.00
2022-09-12T06:45:07.743Z,100.00
2022-09-12T06:47:37.393Z,100.00
2022-09-12T06:50:07.617Z,100.00
2022-09-12T06:52:36.865Z,100.00
2022-09-12T06:55:06.526Z,100.00
2022-09-12T06:57:37.523Z,100.00
2022-09-12T07:00:07.839Z,100.00
2022-09-12T07:02:37.452Z,100.00
2022-09-12T07:05:08.367Z,100.00
2022-09-12T07:07:38.139Z,100.00
2022-09-12T07:10:08.209Z,100.00
2022-09-12T07:12:37.612Z,100.00
2022-09-12T07:15:07.268Z,100.00
2022-09-12T07:17:36.712Z,100.00
2022-09-12T07:20:08.108Z,100.00
2022-09-12T07:22:37.851Z,99.40
2022-09-12T07:25:09.281Z,98.85
2022-09-12T07:27:38.536Z,98.89
2022-09-12T07:30:08.509Z,97.33
2022-09-12T07:32:37.750Z,97.71
2022-09-12T07:35:07.625Z,97.54
2022-09-12T07:37:36.899Z,96.33
2022-09-12T07:40:06.522Z,94.96
2022-09-12T07:42:35.841Z,95.33
2022-09-12T07:45:05.486Z,96.21
2022-09-12T07:47:35.215Z,96.28
2022-09-12T07:50:05.805Z,94.82
2022-09-12T07:52:35.320Z,94.33
2022-09-12T07:55:05.082Z,93.27
2022-09-12T07:57:34.375Z,93.18
2022-09-12T08:00:03.895Z,91.54
2022-09-12T08:02:34.890Z,91.76
2022-09-12T08:05:04.187Z,91.16
2022-09-12T08:07:34.155Z,90.58
2022-09-12T08:10:03.521Z,88.93
2022-09-12T08:12:34.725Z,87.94
2022-09-12T08:15:04.003Z,85.81
2022-09-12T08:17:33.454Z,85.50
2022-09-12T08:20:02.847Z,85.35
2022-09-12T08:22:32.967Z,85.04
2022-09-12T08:25:02.320Z,83.95
2022-09-12T08:27:31.580Z,82.88
2022-09-12T08:30:00.913Z,82.04
2022-09-12T08:32:30.315Z,82.55
2022-09-12T08:34:59.592Z,81.58
2022-09-12T08:37:33.363Z,81.09
2022-09-12T08:40:02.842Z,80.12
2022-09-12T08:42:38.260Z,80.55
2022-09-12T08:45:10.656Z,79.60
2022-09-12T08:47:42.669Z,79.98
2022-09-12T08:50:15.823Z,78.15
2022-09-12T08:53:07.817Z,75.71
2022-09-12T08:55:39.674Z,76.03
2022-09-12T08:58:17.510Z,76.67
2022-09-12T09:01:05.001Z,75.36
2022-09-12T09:03:44.574Z,74.52
2022-09-12T09:06:35.019Z,74.19
2022-09-12T09:09:26.091Z,71.93
2022-09-12T09:11:58.484Z,71.14
2022-09-12T09:14:49.142Z,71.66
2022-09-12T09:17:48.281Z,69.28
2022-09-12T09:20:38.373Z,70.98
2022-09-12T09:23:15.311Z,65.33
2022-09-12T09:26:02.530Z,64.20
2022-09-12T09:28:51.054Z,60.48
2022-09-12T09:31:23.397Z,58.59
2022-09-12T09:33:57.586Z,52.74
2022-09-12T09:36:32.980Z,50.04
2022-09-12T09:39:14.647Z,47.80
2022-09-12T09:41:56.129Z,47.31
2022-09-12T09:44:25.409Z,45.89
2022-09-12T09:46:56.893Z,45.83
2022-09-12T09:49:31.394Z,44.00
2022-09-12T09:52:01.215Z,45.36
2022-09-12T09:54:45.752Z,47.86
2022-09-12T09:57:39.505Z,43.78
2022-09-12T10:00:27.630Z,42.92
2022-09-12T10:03:14.193Z,39.94
2022-09-12T10:05:52.031Z,39.88
2022-09-12T10:08:23.952Z,39.45
2022-09-12T10:11:01.998Z,39.08
2022-09-12T10:13:37.575Z,37.50
2022-09-12T10:16:10.208Z,38.71
2022-09-12T10:18:42.501Z,37.22
2022-09-12T10:21:20.678Z,39.91
2022-09-12T10:23:52.747Z,38.39
2022-09-12T10:26:22.147Z,39.49
2022-09-12T10:28:54.020Z,37.91
2022-09-12T10:31:31.834Z,36.78
2022-09-12T10:34:01.574Z,38.06
2022-09-12T10:36:39.034Z,36.35
2022-09-12T10:39:10.465Z,38.02
2022-09-12T10:41:40.903Z,37.54
2022-09-12T10:44:16.084Z,38.52
2022-09-12T10:46:45.344Z,35.41
2022-09-12T10:49:23.690Z,35.68
2022-09-12T10:51:55.112Z,36.41
2022-09-12T10:54:27.419Z,36.53
2022-09-12T10:57:11.818Z,38.74
2022-09-12T10:59:44.341Z,38.66
2022-09-12T11:02:29.420Z,36.20
2022-09-12T11:05:10.821Z,35.92
2022-09-12T11:07:43.340Z,35.78
2022-09-12T11:10:15.735Z,37.48
2022-09-12T11:13:04.811Z,39.16
2022-09-12T11:15:46.814Z,36.93
2022-09-12T11:18:25.619Z,36.74
2022-09-12T11:21:26.997Z,37.14
2022-09-12T11:24:08.251Z,35.35
2022-09-12T11:26:51.978Z,38.14
2022-09-12T11:29:24.480Z,37.64
2022-09-12T11:32:15.936Z,36.01
2022-09-12T11:35:06.282Z,37.41
2022-09-12T11:38:01.012Z,35.24
2022-09-12T11:40:36.262Z,33.99
2022-09-12T11:43:24.931Z,35.24
2022-09-12T11:45:54.678Z,36.79
2022-09-12T11:48:45.255Z,37.81
2022-09-12T11:51:20.511Z,38.15
2022-09-12T11:53:56.332Z,38.57
2022-09-12T11:56:29.589Z,39.67
2022-09-12T11:59:04.870Z,38.46
2022-09-12T12:01:41.978Z,37.13
2022-09-12T12:04:11.324Z,39.77
2022-09-12T12:07:04.528Z,41.06
2022-09-12T12:09:34.503Z,38.96
2022-09-12T12:12:06.820Z,36.87
2022-09-12T12:14:44.291Z,39.08
2022-09-12T12:17:22.253Z,38.45
2022-09-12T12:20:08.616Z,39.88
2022-09-12T12:22:37.187Z,39.37
2022-09-12T12:25:21.287Z,38.28
2022-09-12T12:27:51.549Z,39.03
2022-09-12T12:30:33.419Z,38.47
2022-09-12T12:33:14.653Z,40.53
2022-09-12T12:35:48.798Z,38.50
2022-09-12T12:38:36.126Z,39.17
2022-09-12T12:41:24.208Z,40.90
2022-09-12T12:43:56.425Z,41.24
2022-09-12T12:46:27.974Z,37.92
2022-09-12T12:49:12.098Z,40.08
2022-09-12T12:51:56.662Z,38.90
2022-09-12T12:54:43.832Z,39.60
2022-09-12T12:57:33.817Z,43.23
2022-09-12T13:00:09.814Z,41.21
2022-09-12T13:02:41.279Z,42.68
2022-09-12T13:05:25.749Z,44.83
2022-09-12T13:07:57.757Z,41.08
2022-09-12T13:10:28.832Z,41.83
2022-09-12T13:13:01.373Z,44.09
2022-09-12T13:15:40.318Z,38.80
2022-09-12T13:18:15.239Z,39.55
2022-09-12T13:21:10.032Z,39.60
2022-09-12T13:23:39.833Z,42.63
2022-09-12T13:26:15.448Z,39.94
2022-09-12T13:28:44.792Z,41.82
2022-09-12T13:31:25.410Z,41.89
2022-09-12T13:33:59.222Z,41.67
2022-09-12T13:36:55.221Z,41.01
2022-09-12T13:39:53.793Z,41.99
2022-09-12T13:42:38.093Z,39.84
2022-09-12T13:45:12.997Z,39.99
2022-09-12T13:47:47.067Z,40.28
2022-09-12T13:50:19.456Z,41.23
2022-09-12T13:52:51.938Z,40.49
2022-09-12T13:55:35.247Z,40.99
2022-09-12T13:58:07.078Z,41.37
2022-09-12T14:00:37.283Z,42.31
2022-09-12T14:03:39.642Z,40.03
2022-09-12T14:06:09.065Z,42.91
2022-09-12T14:08:41.606Z,41.76
2022-09-12T14:11:12.510Z,44.97
2022-09-12T14:13:41.912Z,42.03
2022-09-12T14:16:12.339Z,42.98
2022-09-12T14:18:43.889Z,43.41
2022-09-12T14:21:15.820Z,42.71
2022-09-12T14:23:48.669Z,42.71
2022-09-12T14:26:18.470Z,41.78
2022-09-12T14:28:48.449Z,41.11
2022-09-12T14:31:32.210Z,42.35
2022-09-12T14:34:13.481Z,40.96
2022-09-12T14:36:50.836Z,42.54
2022-09-12T14:39:38.223Z,43.29
2022-09-12T14:42:18.939Z,43.44
2022-09-12T14:45:01.881Z,42.87
2022-09-12T14:47:40.401Z,42.91
2022-09-12T14:50:21.884Z,41.38
2022-09-12T14:53:06.243Z,41.58
2022-09-12T14:55:38.027Z,42.90
2022-09-12T14:58:24.009Z,43.41
2022-09-12T15:00:58.209Z,44.57
2022-09-12T15:03:35.657Z,46.55
2022-09-12T15:06:08.166Z,44.41
2022-09-12T15:08:37.575Z,46.07
2022-09-12T15:11:08.040Z,43.69
2022-09-12T15:13:41.894Z,44.70
2022-09-12T15:16:12.708Z,44.31
2022-09-12T15:18:41.941Z,42.37
2022-09-12T15:21:16.985Z,42.37
2022-09-12T15:23:51.180Z,44.27
2022-09-12T15:26:23.306Z,43.41
2022-09-12T15:28:52.857Z,42.63
2022-09-12T15:31:26.993Z,43.81
2022-09-12T15:33:57.904Z,42.17
2022-09-12T15:36:28.766Z,42.77
2022-09-12T15:38:58.047Z,44.67
2022-09-12T15:41:36.458Z,41.85
2022-09-12T15:44:08.144Z,42.39
2022-09-12T15:46:37.449Z,44.73
2022-09-12T15:49:09.650Z,43.14
2022-09-12T15:51:38.148Z,44.91
2022-09-12T15:54:07.310Z,44.08
2022-09-12T15:56:36.510Z,46.04
2022-09-12T15:59:05.911Z,43.80
2022-09-12T16:01:35.156Z,45.02
2022-09-12T16:04:04.678Z,44.32
2022-09-12T16:06:37.204Z,43.21
2022-09-12T16:09:07.053Z,44.08
2022-09-12T16:11:36.331Z,44.71
2022-09-12T16:14:06.279Z,46.06
2022-09-12T16:16:35.733Z,46.53
2022-09-12T16:19:05.044Z,46.50
2022-09-12T16:21:34.247Z,47.37
2022-09-12T16:24:04.037Z,47.73
2022-09-12T16:26:33.655Z,48.24
2022-09-12T16:29:03.317Z,47.73
2022-09-12T16:31:32.738Z,47.74
2022-09-12T16:34:02.361Z,49.32
2022-09-12T16:36:31.563Z,48.68
2022-09-12T16:39:01.126Z,49.35
2022-09-12T16:41:30.509Z,50.44
2022-09-12T16:43:59.783Z,51.49
2022-09-12T16:46:29.791Z,51.07
2022-09-12T16:48:59.948Z,52.37
2022-09-12T16:51:35.968Z,52.17
2022-09-12T16:54:05.306Z,53.24
2022-09-12T16:56:34.520Z,52.39
2022-09-12T16:59:05.500Z,52.28
2022-09-12T17:01:36.619Z,51.60
2022-09-12T17:04:06.755Z,51.64
2022-09-12T17:06:40.742Z,51.74
2022-09-12T17:09:13.405Z,52.77
2022-09-12T17:11:42.675Z,52.74
2022-09-12T17:14:15.056Z,54.05
2022-09-12T17:16:51.685Z,57.63
2022-09-12T17:19:33.212Z,60.75
2022-09-12T17:22:02.413Z,63.31
2022-09-12T17:24:33.032Z,63.11
2022-09-12T17:27:02.327Z,64.58
2022-09-12T17:29:31.641Z,65.51
2022-09-12T17:32:00.859Z,64.15
2022-09-12T17:34:30.414Z,62.38
2022-09-12T17:36:59.700Z,65.17
2022-09-12T17:39:29.232Z,61.08
2022-09-12T17:42:00.132Z,62.90
2022-09-12T17:44:30.424Z,65.43
2022-09-12T17:46:59.727Z,67.56
2022-09-12T17:49:29.096Z,69.25
2022-09-12T17:51:58.301Z,69.96
2022-09-12T17:54:27.691Z,69.72
2022-09-12T17:56:56.978Z,69.77
2022-09-12T17:59:27.731Z,69.94
2022-09-12T18:02:15.601Z,70.60
2022-09-12T18:04:50.758Z,71.23
2022-09-12T18:07:22.337Z,72.87
2022-09-12T18:09:56.561Z,74.42
2022-09-12T18:12:27.900Z,74.39
2022-09-12T18:14:57.361Z,74.13
2022-09-12T18:17:28.538Z,75.49
2022-09-12T18:19:57.957Z,75.67
2022-09-12T18:22:27.295Z,74.40
2022-09-12T18:24:56.719Z,73.91
2022-09-12T18:27:32.408Z,74.87
2022-09-12T18:30:20.623Z,77.52
2022-09-12T18:32:33.119Z,77.92
2022-09-12T18:35:04.361Z,78.27
2022-09-12T18:37:36.545Z,79.56
2022-09-12T18:40:09.437Z,80.71
2022-09-12T18:42:40.336Z,78.80
2022-09-12T18:45:10.270Z,80.33
2022-09-12T18:47:42.331Z,82.00
2022-09-12T18:50:11.842Z,81.97
2022-09-12T18:52:41.195Z,80.19
2022-09-12T18:55:10.988Z,81.01
2022-09-12T18:57:42.099Z,81.62
2022-09-12T19:00:13.424Z,82.03
2022-09-12T19:02:42.771Z,82.74
2022-09-12T19:05:12.828Z,82.82
2022-09-12T19:07:42.062Z,82.25
2022-09-12T19:10:12.068Z,81.39
2022-09-12T19:12:41.318Z,81.97
2022-09-12T19:15:10.971Z,81.99
2022-09-12T19:17:40.179Z,85.54
2022-09-12T19:20:09.852Z,84.16
2022-09-12T19:22:39.218Z,83.55
2022-09-12T19:25:09.405Z,82.45
2022-09-12T19:27:38.675Z,82.15
2022-09-12T19:30:08.682Z,82.35
2022-09-12T19:32:37.896Z,82.64
2022-09-12T19:35:07.659Z,83.43
2022-09-12T19:37:36.935Z,83.75
2022-09-12T19:40:07.877Z,85.44
2022-09-12T19:42:37.179Z,85.62
2022-09-12T19:45:07.199Z,84.17
2022-09-12T19:47:36.577Z,84.79
2022-09-12T19:50:06.727Z,86.26
2022-09-12T19:52:36.242Z,86.83
2022-09-12T19:55:05.710Z,87.03
2022-09-12T19:57:35.123Z,87.78
2022-09-12T20:00:06.916Z,89.12
2022-09-12T20:02:36.412Z,89.21
2022-09-12T20:05:06.299Z,88.30
2022-09-12T20:07:35.684Z,87.92
2022-09-12T20:10:05.660Z,87.07
2022-09-12T20:12:34.975Z,88.17
2022-09-12T20:15:05.019Z,89.76
2022-09-12T20:17:34.606Z,90.48
2022-09-12T20:20:04.070Z,88.17
2022-09-12T20:22:37.964Z,89.01
2022-09-12T20:25:04.904Z,87.25
2022-09-12T20:27:34.312Z,87.68
2022-09-12T20:30:03.749Z,88.03
2022-09-12T20:32:33.208Z,88.53
2022-09-12T20:35:02.764Z,89.56
2022-09-12T20:37:32.084Z,89.42
2022-09-12T20:40:01.368Z,89.48
2022-09-12T20:42:31.231Z,92.01
2022-09-12T20:45:00.489Z,91.88
2022-09-12T20:47:31.419Z,91.07
2022-09-12T20:50:00.823Z,91.39
2022-09-12T20:52:30.200Z,90.95
2022-09-12T20:54:59.465Z,89.78
2022-09-12T20:57:28.870Z,88.87
2022-09-12T20:59:58.108Z,90.37
2022-09-12T21:02:29.281Z,90.77
2022-09-12T21:04:59.340Z,92.86
2022-09-12T21:07:28.796Z,92.58
2022-09-12T21:09:58.816Z,92.88
2022-09-12T21:12:31.496Z,94.51
2022-09-12T21:15:00.902Z,93.95
2022-09-12T21:17:30.239Z,93.96
2022-09-12T21:19:59.643Z,92.90
2022-09-12T21:22:29.118Z,92.28
2022-09-12T21:24:58.447Z,91.53
2022-09-12T21:27:27.930Z,91.32
2022-09-12T21:29:57.483Z,90.83
2022-09-12T21:32:28.746Z,90.87
2022-09-12T21:34:58.112Z,90.94
2022-09-12T21:37:27.728Z,91.89
2022-09-12T21:40:01.447Z,91.01
2022-09-12T21:42:31.760Z,91.13
2022-09-12T21:45:01.041Z,91.13
2022-09-12T21:47:30.334Z,91.08
2022-09-12T21:49:59.748Z,91.29
2022-09-12T21:52:29.065Z,91.25
2022-09-12T21:54:58.385Z,91.02
2022-09-12T21:57:27.706Z,90.15
2022-09-12T21:59:57.987Z,89.53
2022-09-12T22:02:29.384Z,89.55
2022-09-12T22:04:59.184Z,87.68
2022-09-12T22:07:29.321Z,86.71
2022-09-12T22:09:58.668Z,85.75
2022-09-12T22:12:30.902Z,85.83
2022-09-12T22:15:08.929Z,86.22
2022-09-12T22:17:31.201Z,86.83
2022-09-12T22:20:00.437Z,86.89
2022-09-12T22:22:47.696Z,85.40
2022-09-12T22:25:17.031Z,86.00
2022-09-12T22:27:46.455Z,86.75
2022-09-12T22:30:18.989Z,86.42
2022-09-12T22:32:49.874Z,86.17
2022-09-12T22:35:20.928Z,85.91
2022-09-12T22:37:50.251Z,87.27
2022-09-12T22:40:19.872Z,87.68
2022-09-12T22:42:50.946Z,87.10
2022-09-12T22:45:20.263Z,87.19
2022-09-12T22:47:49.717Z,88.17
2022-09-12T22:50:18.989Z,86.52
2022-09-12T22:52:48.355Z,87.20
2022-09-12T22:55:17.988Z,88.08
2022-09-12T22:57:49.212Z,88.59
2022-09-12T23:00:19.513Z,89.25
2022-09-12T23:02:48.864Z,90.02
2022-09-12T23:05:18.418Z,90.35
2022-09-12T23:07:47.646Z,91.18
2022-09-12T23:10:17.056Z,90.94
2022-09-12T23:12:46.266Z,91.48
2022-09-12T23:15:15.568Z,91.38
2022-09-12T23:17:44.887Z,92.37
2022-09-12T23:20:14.120Z,91.62
2022-09-12T23:22:43.525Z,90.89
2022-09-12T23:25:12.902Z,91.42
2022-09-12T23:27:43.447Z,90.92
2022-09-12T23:30:13.102Z,90.03
2022-09-12T23:32:42.362Z,89.51
2022-09-12T23:35:12.718Z,90.06
2022-09-12T23:37:42.134Z,88.22
2022-09-12T23:40:12.217Z,89.25
2022-09-12T23:42:41.562Z,87.76
2022-09-12T23:45:11.301Z,88.73
2022-09-12T23:47:40.648Z,88.73
2022-09-12T23:50:10.484Z,87.98
2022-09-12T23:52:39.854Z,87.49
2022-09-12T23:55:11.068Z,87.51
2022-09-12T23:57:40.376Z,88.08
